Time;durP1;ratioP1;P1;durP2;ratioP2;P2;SDS_P1;SDS_P2;PMS_P1;PMS_P2;Temp;Humidity;BMP_temperature;BMP_pressure;BME280_temperature;BME280_humidity;BME280_pressure;Samples;Min_cycle;Max_cycle;Signal;HPM_P1;HPM_P2
2022/11/11 00:01:46;;;;;;;;;;;17.20;57.70;;;;;;4995486;28;20023;-94
2022/11/11 00:04:11;;;;;;;;;;;16.80;57.50;;;;;;4997283;28;19921;-94
2022/11/11 00:06:37;;;;;;;;;;;18.70;58.60;;;;;;5000035;28;20387;-94
2022/11/11 00:09:02;;;;;;;;;;;18.00;58.10;;;;;;4999606;28;19921;-94
2022/11/11 00:11:28;;;;;;;;;;;18.30;58.40;;;;;;4999348;28;20443;-94
2022/11/11 00:13:53;;;;;;;;;;;18.60;58.50;;;;;;4999208;28;19921;-94
2022/11/11 00:16:19;;;;;;;;;;;18.60;58.50;;;;;;4999353;28;19968;-88
2022/11/11 00:27:07;;;;;;;;;;;17.30;57.90;;;;;;4999024;28;20281;-94
2022/11/11 00:29:33;;;;;;;;;;;17.00;57.70;;;;;;4998848;28;20195;-94
2022/11/11 00:32:32;;;;;;;;;;;18.60;58.60;;;;;;4998972;28;20008;-94
2022/11/11 00:35:52;;;;;;;;;;;17.90;58.20;;;;;;4998784;28;19932;-94
2022/11/11 00:37:30;;;;;;;;;;;18.50;58.60;;;;;;4998451;28;19929;-94
2022/11/11 00:39:56;;;;;;;;;;;18.50;58.60;;;;;;4999250;28;19922;-93
2022/11/11 00:42:21;;;;;;;;;;;17.50;58.10;;;;;;4998413;28;20285;-94
2022/11/11 00:44:47;;;;;;;;;;;18.40;58.50;;;;;;4998620;28;19932;-94
2022/11/11 00:52:45;;;;;;;;;;;18.50;58.60;;;;;;4998335;28;20008;-94
2022/11/11 00:55:10;;;;;;;;;;;18.50;58.60;;;;;;4998483;28;19922;-94
2022/11/11 00:57:36;;;;;;;;;;;18.50;58.60;;;;;;4998456;28;19922;-94
2022/11/11 01:00:01;;;;;;;;;;;18.50;58.60;;;;;;4998679;28;20277;-94
2022/11/11 01:02:27;;;;;;;;;;;18.50;58.70;;;;;;4998289;28;20301;-94
2022/11/11 01:04:52;;;;;;;;;;;18.50;58.70;;;;;;4998600;28;20444;-94
2022/11/11 01:07:18;;;;;;;;;;;18.40;58.60;;;;;;4998584;28;19976;-94
2022/11/11 01:09:43;;;;;;;;;;;18.50;58.70;;;;;;4998555;28;19926;-94
2022/11/11 01:12:09;;;;;;;;;;;17.90;58.30;;;;;;4998511;28;19925;-94
2022/11/11 01:14:35;;;;;;;;;;;17.00;57.90;;;;;;4997956;28;19941;-94
2022/11/11 01:17:00;;;;;;;;;;;18.20;58.50;;;;;;4998046;28;19921;-93
2022/11/11 01:19:26;;;;;;;;;;;17.90;58.40;;;;;;4997962;28;20124;-94
2022/11/11 01:21:51;;;;;;;;;;;18.50;58.70;;;;;;4997723;28;19921;-94
2022/11/11 01:24:17;;;;;;;;;;;16.90;57.80;;;;;;4997948;28;19932;-94
2022/11/11 01:26:42;;;;;;;;;;;18.50;58.70;;;;;;4997319;28;19921;-94
2022/11/11 01:29:08;;;;;;;;;;;18.50;58.70;;;;;;4997929;28;20047;-94
2022/11/11 01:31:33;;;;;;;;;;;18.40;58.60;;;;;;4998142;28;20365;-88
2022/11/11 01:33:59;;;;;;;;;;;17.60;58.20;;;;;;4998029;28;19948;-94
2022/11/11 01:36:25;;;;;;;;;;;18.40;58.60;;;;;;4998311;28;20358;-88
2022/11/11 01:38:52;;;;;;;;;;;18.00;58.40;;;;;;4997824;28;19929;-94
2022/11/11 01:41:37;;;;;;;;;;;17.10;57.90;;;;;;4997449;28;19968;-94
2022/11/11 01:46:43;;;;;;;;;;;18.40;58.60;;;;;;5089768;28;19919;-75
2022/11/11 01:51:55;;;;;;;;;;;18.40;58.60;;;;;;5089923;28;19912;-76
2022/11/11 01:57:05;;;;;;;;;;;18.40;58.60;;;;;;5089918;28;20276;-75
2022/11/11 01:59:32;;;;;;;;;;;18.40;58.60;;;;;;5088783;28;19960;-75
2022/11/11 02:01:58;;;;;;;;;;;18.40;58.70;;;;;;5089839;28;19934;-75
2022/11/11 02:07:09;;;;;;;;;;;18.30;58.60;;;;;;5088599;28;19920;-76
2022/11/11 02:09:38;;;;;;;;;;;18.30;58.60;;;;;;5088770;28;19927;-75
2022/11/11 02:14:52;;;;;;;;;;;18.30;58.60;;;;;;5105291;28;19928;-75
2022/11/11 02:17:18;;;;;;;;;;;18.30;58.60;;;;;;5105145;28;19920;-75
2022/11/11 02:20:00;;;;;;;;;;;18.30;58.60;;;;;;5088506;28;19924;-76
2022/11/11 02:25:08;;;;;;;;;;;18.30;58.60;;;;;;5090009;28;19919;-75
2022/11/11 02:27:35;;;;;;;;;;;18.30;58.60;;;;;;5088566;28;19920;-75
2022/11/11 02:30:03;;;;;;;;;;;18.30;58.60;;;;;;5088596;28;19947;-76
2022/11/11 02:32:28;;;;;;;;;;;18.30;58.70;;;;;;5088793;28;19925;-75
2022/11/11 02:34:54;;;;;;;;;;;18.20;58.60;;;;;;5088490;28;20012;-75
2022/11/11 02:37:21;;;;;;;;;;;18.40;58.60;;;;;;5105688;28;19999;-75
2022/11/11 02:39:48;;;;;;;;;;;18.50;58.50;;;;;;5089665;28;20261;-75
2022/11/11 02:42:15;;;;;;;;;;;18.90;58.10;;;;;;5088735;28;20295;-75
2022/11/11 02:44:41;;;;;;;;;;;19.20;57.30;;;;;;5088212;28;19924;-75
2022/11/11 02:47:07;;;;;;;;;;;19.50;56.60;;;;;;5089578;28;20403;-75
2022/11/11 02:49:32;;;;;;;;;;;19.90;55.70;;;;;;5088429;28;19971;-75
2022/11/11 02:51:58;;;;;;;;;;;20.30;54.50;;;;;;5089395;28;20604;-78
2022/11/11 02:54:23;;;;;;;;;;;21.00;53.20;;;;;;5089566;28;19978;-75
2022/11/11 02:57:20;;;;;;;;;;;21.70;51.60;;;;;;5088392;28;20322;-74
2022/11/11 02:59:35;;;;;;;;;;;22.30;50.40;;;;;;5087817;28;19926;-74
2022/11/11 03:02:01;;;;;;;;;;;22.90;48.90;;;;;;5087964;28;19974;-74
2022/11/11 03:04:26;;;;;;;;;;;23.30;48.00;;;;;;5087161;28;19972;-75
2022/11/11 03:06:52;;;;;;;;;;;23.70;47.20;;;;;;5087726;28;19924;-74
2022/11/11 03:09:17;;;;;;;;;;;23.90;46.50;;;;;;5088113;28;20110;-74
2022/11/11 03:11:43;;;;;;;;;;;24.10;46.00;;;;;;5088097;28;19943;-74
2022/11/11 03:14:08;;;;;;;;;;;24.30;45.60;;;;;;5087662;28;20392;-75
2022/11/11 03:19:19;;;;;;;;;;;24.60;45.10;;;;;;5088402;28;20261;-75
2022/11/11 03:21:45;;;;;;;;;;;24.60;44.80;;;;;;5087612;28;19921;-75
2022/11/11 03:24:10;;;;;;;;;;;24.60;44.80;;;;;;5086561;28;19978;-75
2022/11/11 03:26:36;;;;;;;;;;;24.60;44.80;;;;;;5088777;28;19920;-75
2022/11/11 03:29:02;;;;;;;;;;;24.50;44.90;;;;;;5087436;28;20342;-74
2022/11/11 03:31:27;;;;;;;;;;;24.50;45.00;;;;;;5088686;28;19924;-74
2022/11/11 03:33:53;;;;;;;;;;;24.40;45.20;;;;;;5087320;28;19925;-74
2022/11/11 03:36:18;;;;;;;;;;;24.30;45.40;;;;;;5074651;28;20619;-75
2022/11/11 03:38:44;;;;;;;;;;;24.10;45.70;;;;;;5074117;28;19927;-76
2022/11/11 03:41:09;;;;;;;;;;;23.90;46.00;;;;;;5074011;28;20104;-75
2022/11/11 03:43:35;;;;;;;;;;;23.80;46.30;;;;;;5074942;28;19924;-75
2022/11/11 03:46:01;;;;;;;;;;;23.50;46.50;;;;;;5074809;28;19920;-75
2022/11/11 03:48:28;;;;;;;;;;;23.40;46.90;;;;;;5074931;28;19928;-76
2022/11/11 03:50:54;;;;;;;;;;;23.30;47.20;;;;;;5074765;28;20015;-77
2022/11/11 03:53:20;;;;;;;;;;;23.10;47.50;;;;;;5074994;28;20327;-75
2022/11/11 03:55:46;;;;;;;;;;;23.00;47.60;;;;;;5073689;28;19934;-74
2022/11/11 03:58:12;;;;;;;;;;;22.90;47.90;;;;;;5072790;28;19925;-74
2022/11/11 04:00:37;;;;;;;;;;;22.90;48.00;;;;;;5073397;28;19947;-75
2022/11/11 04:11:25;;;;;;;;;;;22.80;48.40;;;;;;5072947;28;19924;-74
2022/11/11 04:16:36;;;;;;;;;;;22.80;48.20;;;;;;5074324;28;20374;-76
2022/11/11 04:21:48;;;;;;;;;;;22.90;47.90;;;;;;5072689;28;19921;-75
2022/11/11 04:27:06;;;;;;;;;;;23.10;47.90;;;;;;5072897;28;19969;-74
2022/11/11 04:29:32;;;;;;;;;;;23.00;47.70;;;;;;5072886;28;19920;-77
2022/11/11 04:34:45;;;;;;;;;;;22.90;47.70;;;;;;5072571;28;19921;-77
2022/11/11 04:37:11;;;;;;;;;;;23.10;47.90;;;;;;5073266;28;20433;-76
2022/11/11 04:42:22;;;;;;;;;;;22.90;48.10;;;;;;5072622;28;20015;-75
2022/11/11 04:47:33;;;;;;;;;;;22.80;48.10;;;;;;5072468;28;19921;-74
2022/11/11 04:49:59;;;;;;;;;;;22.90;48.10;;;;;;5072647;28;19928;-75
2022/11/11 04:52:25;;;;;;;;;;;22.90;48.10;;;;;;5072714;28;20389;-74
2022/11/11 04:57:39;;;;;;;;;;;23.00;47.80;;;;;;5073317;28;19921;-74
2022/11/11 05:00:04;;;;;;;;;;;23.00;47.70;;;;;;5072476;28;19921;-74
2022/11/11 05:03:29;;;;;;;;;;;23.00;47.70;;;;;;5072454;28;19920;-74
2022/11/11 05:05:15;;;;;;;;;;;23.10;47.70;;;;;;5071910;28;20015;-76
2022/11/11 05:10:26;;;;;;;;;;;23.10;47.60;;;;;;5073114;28;20383;-74
2022/11/11 05:12:52;;;;;;;;;;;23.20;47.50;;;;;;5071938;28;19925;-75
2022/11/11 05:21:20;;;;;;;;;;;23.20;47.30;;;;;;5072785;28;20400;-75
2022/11/11 05:26:19;;;;;;;;;;;23.30;47.20;;;;;;5071803;28;20272;-75
2022/11/11 05:28:46;;;;;;;;;;;23.20;47.30;;;;;;5071611;28;19927;-77
2022/11/11 05:31:11;;;;;;;;;;;23.30;47.30;;;;;;5071956;28;19920;-75
2022/11/11 05:33:37;;;;;;;;;;;23.30;47.40;;;;;;5071468;28;20459;-75
2022/11/11 05:36:02;;;;;;;;;;;23.30;47.20;;;;;;5071617;28;19920;-74
2022/11/11 05:38:29;;;;;;;;;;;23.20;47.30;;;;;;5071475;28;19931;-74
2022/11/11 05:40:54;;;;;;;;;;;23.20;47.40;;;;;;5071823;28;20007;-77
2022/11/11 05:43:20;;;;;;;;;;;23.20;47.40;;;;;;5072711;28;20345;-75
2022/11/11 05:45:45;;;;;;;;;;;23.20;47.40;;;;;;5071391;28;20383;-74
2022/11/11 05:48:10;;;;;;;;;;;23.20;47.30;;;;;;5072666;28;20006;-76
2022/11/11 05:50:40;;;;;;;;;;;23.20;47.30;;;;;;5071594;28;19977;-75
2022/11/11 05:53:05;;;;;;;;;;;23.20;47.40;;;;;;5071336;28;20301;-75
2022/11/11 05:55:31;;;;;;;;;;;23.20;47.20;;;;;;5071272;28;19920;-75
2022/11/11 05:57:56;;;;;;;;;;;23.20;48.00;;;;;;5072467;28;19987;-76
2022/11/11 06:00:22;;;;;;;;;;;23.20;47.40;;;;;;5072508;28;20645;-75
2022/11/11 06:02:47;;;;;;;;;;;23.20;47.20;;;;;;5071169;28;20037;-75
2022/11/11 06:05:13;;;;;;;;;;;23.20;47.30;;;;;;5072333;28;19920;-76
2022/11/11 06:07:39;;;;;;;;;;;23.30;47.20;;;;;;5071180;28;19927;-75
2022/11/11 06:10:37;;;;;;;;;;;23.30;47.20;;;;;;5071404;28;19920;-74
2022/11/11 06:13:08;;;;;;;;;;;23.30;47.10;;;;;;5071039;28;19924;-76
2022/11/11 06:15:35;;;;;;;;;;;23.30;47.10;;;;;;5070984;28;19963;-75
2022/11/11 06:18:01;;;;;;;;;;;23.30;47.10;;;;;;5071105;28;19946;-74
2022/11/11 06:20:27;;;;;;;;;;;23.30;47.10;;;;;;5071228;28;19920;-74
2022/11/11 06:22:56;;;;;;;;;;;23.40;47.20;;;;;;5070757;28;20395;-74
2022/11/11 06:28:08;;;;;;;;;;;23.40;46.90;;;;;;5072045;28;20326;-75
2022/11/11 06:30:33;;;;;;;;;;;23.40;46.80;;;;;;5072165;28;19927;-75
2022/11/11 06:32:59;;;;;;;;;;;23.40;46.90;;;;;;5070711;28;19999;-71
2022/11/11 06:35:24;;;;;;;;;;;23.40;47.00;;;;;;5068288;28;20371;-69
2022/11/11 06:37:50;;;;;;;;;;;23.30;47.00;;;;;;5069699;28;19966;-70
2022/11/11 06:40:15;;;;;;;;;;;23.20;47.30;;;;;;5070009;28;19920;-74
2022/11/11 06:42:41;;;;;;;;;;;23.10;47.40;;;;;;5069240;28;19921;-72
2022/11/11 06:45:07;;;;;;;;;;;23.00;47.50;;;;;;5069726;28;19925;-77
2022/11/11 06:47:32;;;;;;;;;;;22.90;47.00;;;;;;5070365;28;19925;-76
2022/11/11 06:49:58;;;;;;;;;;;22.90;47.20;;;;;;5069344;28;20012;-77
2022/11/11 06:52:23;;;;;;;;;;;22.90;47.40;;;;;;5070934;28;20011;-77
2022/11/11 06:54:49;;;;;;;;;;;23.00;47.30;;;;;;5070401;28;19920;-77
2022/11/11 06:57:14;;;;;;;;;;;23.00;47.00;;;;;;5071377;28;20296;-75
2022/11/11 06:59:40;;;;;;;;;;;23.20;46.60;;;;;;5069542;28;20376;-76
2022/11/11 07:02:05;;;;;;;;;;;23.30;46.20;;;;;;5068311;28;19924;-76
2022/11/11 07:04:31;;;;;;;;;;;23.40;46.00;;;;;;5067640;28;19966;-76
2022/11/11 07:06:56;;;;;;;;;;;23.60;45.80;;;;;;5069084;28;20337;-82
2022/11/11 07:09:24;;;;;;;;;;;23.70;45.60;;;;;;5059225;28;19925;-79
2022/11/11 07:11:50;;;;;;;;;;;23.80;45.50;;;;;;5057080;28;20420;-76
2022/11/11 07:14:15;;;;;;;;;;;23.90;45.50;;;;;;5055496;28;19921;-78
2022/11/11 07:16:41;;;;;;;;;;;24.00;45.10;;;;;;5060007;28;19924;-80
2022/11/11 07:19:06;;;;;;;;;;;24.00;45.00;;;;;;5060226;28;19928;-70
2022/11/11 07:21:32;;;;;;;;;;;24.00;45.10;;;;;;5063428;28;19921;-67
2022/11/11 07:23:57;;;;;;;;;;;23.90;45.40;;;;;;5057527;28;19935;-70
2022/11/11 07:26:23;;;;;;;;;;;23.80;45.50;;;;;;5062032;28;19942;-83
2022/11/11 07:28:50;;;;;;;;;;;23.70;45.40;;;;;;5060522;28;19924;-79
2022/11/11 07:31:15;;;;;;;;;;;23.70;45.40;;;;;;5052560;28;19924;-69
2022/11/11 07:33:41;;;;;;;;;;;23.60;45.80;;;;;;5044014;28;19924;-78
2022/11/11 07:36:06;;;;;;;;;;;23.50;46.00;;;;;;5071747;28;19928;-79
2022/11/11 07:38:32;;;;;;;;;;;23.40;46.20;;;;;;5055639;28;19984;-78
2022/11/11 07:40:57;;;;;;;;;;;23.30;46.30;;;;;;5055914;28;20384;-79
2022/11/11 07:43:24;;;;;;;;;;;23.20;46.50;;;;;;5054768;28;19929;-76
2022/11/11 07:45:50;;;;;;;;;;;23.10;46.80;;;;;;5054114;28;19944;-76
2022/11/11 07:48:15;;;;;;;;;;;23.20;47.30;;;;;;5055039;28;20880;-77
2022/11/11 07:50:41;;;;;;;;;;;23.10;47.40;;;;;;5054103;28;20288;-77
2022/11/11 07:53:06;;;;;;;;;;;23.10;47.40;;;;;;5055728;28;19939;-77
2022/11/11 07:55:32;;;;;;;;;;;23.10;47.40;;;;;;5056603;28;19924;-76
2022/11/11 07:57:57;;;;;;;;;;;23.10;47.40;;;;;;5055642;28;19931;-77
2022/11/11 08:00:23;;;;;;;;;;;23.10;47.40;;;;;;5056510;28;20300;-77
2022/11/11 08:02:49;;;;;;;;;;;23.20;47.50;;;;;;5053979;28;19920;-82
2022/11/11 08:05:14;;;;;;;;;;;23.10;47.50;;;;;;5050431;28;20047;-74
2022/11/11 08:07:41;;;;;;;;;;;23.10;47.50;;;;;;5052246;28;19935;-74
2022/11/11 08:10:07;;;;;;;;;;;23.20;47.60;;;;;;5052872;28;20565;-78
2022/11/11 08:15:18;;;;;;;;;;;23.20;47.50;;;;;;5061050;28;20427;-82
2022/11/11 08:17:43;;;;;;;;;;;23.20;47.50;;;;;;5054015;28;20058;-81
2022/11/11 08:20:09;;;;;;;;;;;23.20;47.60;;;;;;5057777;28;20016;-80
2022/11/11 08:22:38;;;;;;;;;;;23.20;47.80;;;;;;5068849;28;20098;-84
2022/11/11 08:25:05;;;;;;;;;;;23.20;47.80;;;;;;5054262;28;20023;-76
2022/11/11 08:27:30;;;;;;;;;;;23.20;47.80;;;;;;5062865;28;20433;-77
2022/11/11 08:29:56;;;;;;;;;;;23.20;47.70;;;;;;5058116;28;19924;-75
2022/11/11 08:32:21;;;;;;;;;;;23.30;47.80;;;;;;5054049;28;19924;-70
2022/11/11 08:34:50;;;;;;;;;;;23.20;47.70;;;;;;5048986;28;19924;-72
2022/11/11 08:37:15;;;;;;;;;;;23.90;48.10;;;;;;5068293;28;19931;-69
2022/11/11 08:39:41;;;;;;;;;;;23.20;47.90;;;;;;5051913;28;19920;-70
2022/11/11 08:42:06;;;;;;;;;;;23.20;48.00;;;;;;5055290;28;19970;-70
2022/11/11 08:44:32;;;;;;;;;;;23.10;48.10;;;;;;5054960;28;20019;-71
2022/11/11 08:46:57;;;;;;;;;;;23.10;48.30;;;;;;5053654;28;20020;-71
2022/11/11 08:49:23;;;;;;;;;;;23.10;48.40;;;;;;5053774;28;20365;-70
2022/11/11 08:51:48;;;;;;;;;;;23.10;48.50;;;;;;5057149;28;19925;-68
2022/11/11 08:54:14;;;;;;;;;;;23.00;48.60;;;;;;5053576;28;19925;-71
2022/11/11 08:56:40;;;;;;;;;;;23.00;48.70;;;;;;5056721;28;19974;-71
2022/11/11 08:59:05;;;;;;;;;;;23.10;48.80;;;;;;5059023;28;19921;-71
2022/11/11 09:01:31;;;;;;;;;;;23.10;48.80;;;;;;5049988;28;19974;-70
2022/11/11 09:03:56;;;;;;;;;;;23.20;49.00;;;;;;5069433;28;19924;-67
2022/11/11 09:06:22;;;;;;;;;;;23.20;48.90;;;;;;5056019;28;19924;-71
2022/11/11 09:08:48;;;;;;;;;;;23.20;49.60;;;;;;5041341;28;20525;-68
2022/11/11 09:11:13;;;;;;;;;;;23.20;48.80;;;;;;5051553;28;19925;-69
2022/11/11 09:13:39;;;;;;;;;;;23.20;49.00;;;;;;5054859;28;19970;-69
2022/11/11 09:16:05;;;;;;;;;;;23.20;49.70;;;;;;5046911;28;19928;-68
2022/11/11 09:18:31;;;;;;;;;;;22.60;48.60;;;;;;5046255;28;20307;-73
2022/11/11 09:20:57;;;;;;;;;;;23.20;49.10;;;;;;5063020;28;19921;-73
2022/11/11 09:23:23;;;;;;;;;;;23.20;49.20;;;;;;5047882;28;20479;-72
2022/11/11 09:25:48;;;;;;;;;;;23.20;49.90;;;;;;5059120;28;20015;-71
2022/11/11 09:28:14;;;;;;;;;;;23.20;49.20;;;;;;5052688;28;20292;-76
2022/11/11 09:30:39;;;;;;;;;;;23.30;49.20;;;;;;5052081;28;19927;-70
2022/11/11 09:33:05;;;;;;;;;;;23.30;49.20;;;;;;5053250;28;21999;-71
2022/11/11 09:35:31;;;;;;;;;;;23.30;49.20;;;;;;5053472;28;19968;-70
2022/11/11 09:37:57;;;;;;;;;;;23.20;49.10;;;;;;5055131;28;19924;-71
2022/11/11 09:40:24;;;;;;;;;;;23.10;49.00;;;;;;5058545;28;20015;-71
2022/11/11 09:42:56;;;;;;;;;;;23.00;49.00;;;;;;5054828;28;19936;-71
2022/11/11 09:48:25;;;;;;;;;;;22.90;49.20;;;;;;5084969;27;19945;-71
2022/11/11 09:50:53;;;;;;;;;;;22.50;49.20;;;;;;5078800;28;19979;-70
2022/11/11 09:56:00;;;;;;;;;;;22.80;49.50;;;;;;5083779;27;2023784;-70
2022/11/11 09:58:32;;;;;;;;;;;22.90;49.60;;;;;;5114548;27;19923;-70
2022/11/11 10:01:07;;;;;;;;;;;22.90;49.40;;;;;;5150809;27;19941;-68
2022/11/11 10:03:38;;;;;;;;;;;23.00;49.40;;;;;;5135275;27;20282;-71
2022/11/11 10:06:09;;;;;;;;;;;23.00;49.40;;;;;;5162931;27;19919;-68
2022/11/11 10:08:38;;;;;;;;;;;23.20;49.20;;;;;;5138951;27;20520;-71
2022/11/11 10:11:10;;;;;;;;;;;23.00;48.90;;;;;;5135144;27;19923;-70
2022/11/11 10:13:36;;;;;;;;;;;23.00;49.00;;;;;;5147519;27;19919;-71
2022/11/11 10:18:51;;;;;;;;;;;22.80;49.20;;;;;;5070438;27;19924;-78
2022/11/11 10:21:23;;;;;;;;;;;22.90;49.30;;;;;;5080313;28;20543;-70
2022/11/11 10:23:51;;;;;;;;;;;22.90;49.00;;;;;;5049955;28;19982;-72
2022/11/11 10:26:19;;;;;;;;;;;22.80;49.30;;;;;;5045801;28;19929;-68
2022/11/11 10:28:44;;;;;;;;;;;22.90;49.40;;;;;;5052120;28;19921;-75
2022/11/11 10:31:13;;;;;;;;;;;23.00;49.60;;;;;;5064751;28;19932;-71
2022/11/11 10:36:27;;;;;;;;;;;23.10;49.30;;;;;;5065743;28;20770;-74
2022/11/11 10:44:35;;;;;;;;;;;23.30;49.00;;;;;;5067004;27;1867047;-72
2022/11/11 10:47:07;;;;;;;;;;;23.40;49.10;;;;;;5113199;27;20883;-70
2022/11/11 10:49:34;;;;;;;;;;;23.30;49.10;;;;;;5107581;27;19919;-70
2022/11/11 10:54:49;;;;;;;;;;;23.20;49.10;;;;;;5091042;27;19927;-69
2022/11/11 10:57:19;;;;;;;;;;;23.20;49.30;;;;;;5085979;28;20467;-72
2022/11/11 11:05:13;;;;;;;;;;;23.20;49.30;;;;;;5103697;27;1900082;-71
2022/11/11 11:07:42;;;;;;;;;;;23.20;49.20;;;;;;5152808;27;20745;-70
2022/11/11 11:10:13;;;;;;;;;;;23.20;49.20;;;;;;5150297;27;19918;-71
2022/11/11 11:12:41;;;;;;;;;;;23.20;49.30;;;;;;5151183;27;19933;-71
2022/11/11 11:15:10;;;;;;;;;;;23.10;49.30;;;;;;5140646;27;19924;-70
2022/11/11 11:17:41;;;;;;;;;;;23.10;49.30;;;;;;5149251;27;19965;-70
2022/11/11 11:22:48;;;;;;;;;;;23.00;49.40;;;;;;5099795;27;1862418;-67
2022/11/11 11:25:15;;;;;;;;;;;23.00;49.60;;;;;;5139628;27;20301;-67
2022/11/11 11:27:40;;;;;;;;;;;23.00;49.60;;;;;;5122932;27;20417;-69
2022/11/11 11:30:11;;;;;;;;;;;23.00;49.70;;;;;;5123667;27;19919;-70
2022/11/11 11:32:37;;;;;;;;;;;22.90;49.60;;;;;;5138703;27;19928;-69
2022/11/11 11:35:03;;;;;;;;;;;22.90;49.80;;;;;;5126595;27;19995;-69
2022/11/11 11:37:28;;;;;;;;;;;22.90;49.90;;;;;;5127581;27;20383;-69
2022/11/11 11:39:59;;;;;;;;;;;22.80;49.90;;;;;;5124026;27;19977;-72
2022/11/11 11:42:26;;;;;;;;;;;22.70;50.00;;;;;;5118355;27;20364;-70
2022/11/11 11:44:52;;;;;;;;;;;22.70;50.10;;;;;;5125114;27;19951;-71
2022/11/11 11:47:26;;;;;;;;;;;22.70;50.20;;;;;;5121431;27;19978;-71
2022/11/11 11:50:11;;;;;;;;;;;22.70;50.30;;;;;;5110411;27;19966;-71
2022/11/11 11:55:36;;;;;;;;;;;22.80;50.40;;;;;;5103569;27;1859186;-69
2022/11/11 11:58:17;;;;;;;;;;;22.80;50.30;;;;;;5140460;27;20010;-70
2022/11/11 12:00:50;;;;;;;;;;;22.90;50.30;;;;;;5136469;27;19997;-69
2022/11/11 12:03:24;;;;;;;;;;;22.90;50.20;;;;;;5153134;27;19923;-70
2022/11/11 12:11:40;;;;;;;;;;;22.90;50.10;;;;;;5068445;28;19949;-70
2022/11/11 12:14:26;;;;;;;;;;;22.90;50.10;;;;;;5064403;28;19928;-70
2022/11/11 12:16:55;;;;;;;;;;;22.90;50.10;;;;;;5054197;28;19944;-72
2022/11/11 12:19:41;;;;;;;;;;;22.90;50.10;;;;;;5060299;28;20039;-71
2022/11/11 12:25:06;;;;;;;;;;;23.00;50.30;;;;;;5089656;27;20468;-71
2022/11/11 12:27:52;;;;;;;;;;;22.90;50.20;;;;;;5074552;28;20006;-72
2022/11/11 12:30:19;;;;;;;;;;;22.90;50.30;;;;;;5081066;28;19920;-73
2022/11/11 12:38:24;;;;;;;;;;;22.90;50.40;;;;;;5074196;27;19923;-69
2022/11/11 12:41:10;;;;;;;;;;;22.90;50.30;;;;;;5067716;28;20048;-70
2022/11/11 12:54:43;;;;;;;;;;;22.90;50.60;;;;;;5060001;28;19932;-72
2022/11/11 12:57:16;;;;;;;;;;;22.90;50.70;;;;;;5034423;28;20047;-73
2022/11/11 13:02:32;;;;;;;;;;;22.90;50.90;;;;;;5086611;27;1871379;-71
2022/11/11 13:05:08;;;;;;;;;;;22.80;50.80;;;;;;5136312;27;19923;-73
2022/11/11 13:10:26;;;;;;;;;;;23.10;51.10;;;;;;5090368;27;20392;-72
2022/11/11 13:12:58;;;;;;;;;;;22.90;50.90;;;;;;5112647;28;19978;-73
2022/11/11 13:15:25;;;;;;;;;;;22.90;51.00;;;;;;5077349;28;19928;-72
2022/11/11 13:17:51;;;;;;;;;;;22.90;51.00;;;;;;5075122;28;19924;-74
2022/11/11 13:22:56;;;;;;;;;;;22.80;51.10;;;;;;5089288;27;20419;-68
2022/11/11 13:25:23;;;;;;;;;;;22.80;51.10;;;;;;5090360;28;19924;-68
2022/11/11 13:27:50;;;;;;;;;;;22.80;51.20;;;;;;5092992;28;20383;-70
2022/11/11 13:33:14;;;;;;;;;;;22.90;51.20;;;;;;5090900;27;19964;-71
2022/11/11 13:35:50;;;;;;;;;;;22.90;51.10;;;;;;5081624;28;19963;-72
2022/11/11 13:38:25;;;;;;;;;;;22.90;51.10;;;;;;5082301;28;20036;-75
2022/11/11 13:40:53;;;;;;;;;;;22.90;51.00;;;;;;5110813;27;19924;-76
2022/11/11 13:43:24;;;;;;;;;;;22.90;51.10;;;;;;5099224;27;19932;-73
2022/11/11 13:45:51;;;;;;;;;;;22.80;51.10;;;;;;5073610;28;20030;-73
2022/11/11 13:48:21;;;;;;;;;;;23.00;51.30;;;;;;5091548;28;19929;-72
2022/11/11 13:50:47;;;;;;;;;;;22.80;51.30;;;;;;5075645;28;19924;-67
2022/11/11 13:53:28;;;;;;;;;;;22.80;51.30;;;;;;5081683;28;19924;-74
2022/11/11 13:55:59;;;;;;;;;;;22.80;51.40;;;;;;5080256;28;20327;-75
2022/11/11 13:58:27;;;;;;;;;;;22.80;52.20;;;;;;5070102;28;20000;-77
2022/11/11 14:00:57;;;;;;;;;;;22.90;51.60;;;;;;5079493;28;19972;-70
2022/11/11 14:06:21;;;;;;;;;;;22.80;51.50;;;;;;5112462;27;1861201;-72
2022/11/11 14:11:32;;;;;;;;;;;22.90;51.40;;;;;;5089284;27;20272;-71
2022/11/11 14:14:17;;;;;;;;;;;21.30;50.50;;;;;;5082738;28;19927;-70
2022/11/11 14:22:23;;;;;;;;;;;22.80;51.00;;;;;;5086870;28;20288;-76
2022/11/11 14:24:49;;;;;;;;;;;22.80;51.20;;;;;;5082651;28;19956;-72
2022/11/11 14:27:16;;;;;;;;;;;22.80;51.20;;;;;;5082717;28;20018;-72
2022/11/11 14:29:50;;;;;;;;;;;22.80;51.10;;;;;;5084275;28;20015;-71
2022/11/11 14:32:24;;;;;;;;;;;22.80;50.60;;;;;;5084335;28;20023;-76
2022/11/11 14:34:56;;;;;;;;;;;22.80;50.70;;;;;;5089944;28;20543;-73
2022/11/11 14:40:10;;;;;;;;;;;22.70;50.50;;;;;;5103263;27;20312;-67
2022/11/11 14:48:33;;;;;;;;;;;22.70;50.40;;;;;;5139788;27;19934;-73
2022/11/11 14:50:59;;;;;;;;;;;22.70;50.10;;;;;;5105457;28;19931;-73
2022/11/11 14:53:30;;;;;;;;;;;22.70;50.00;;;;;;5106760;28;19928;-73
2022/11/11 14:55:55;;;;;;;;;;;22.60;49.80;;;;;;5137986;27;19949;-74
2022/11/11 14:58:24;;;;;;;;;;;22.60;49.80;;;;;;5136040;27;19919;-74
2022/11/11 15:00:59;;;;;;;;;;;22.60;49.80;;;;;;5090078;28;20425;-74
2022/11/11 15:03:26;;;;;;;;;;;22.60;49.80;;;;;;5112269;28;19924;-74
2022/11/11 15:05:55;;;;;;;;;;;22.60;49.60;;;;;;5104970;28;19920;-73
2022/11/11 15:08:22;;;;;;;;;;;22.60;49.60;;;;;;5096240;28;19927;-73
2022/11/11 15:19:12;;;;;;;;;;;22.40;49.40;;;;;;5106543;27;20287;-72
2022/11/11 15:21:42;;;;;;;;;;;22.30;49.60;;;;;;5104363;28;19927;-70
2022/11/11 15:24:15;;;;;;;;;;;22.30;50.00;;;;;;5105687;28;19927;-68
2022/11/11 15:26:46;;;;;;;;;;;22.20;50.00;;;;;;5104275;28;19973;-70
2022/11/11 15:32:12;;;;;;;;;;;22.30;50.30;;;;;;5085580;28;19919;-71
2022/11/11 15:34:42;;;;;;;;;;;22.20;49.90;;;;;;5083999;28;20345;-71
2022/11/11 15:37:10;;;;;;;;;;;22.30;50.40;;;;;;5081313;28;19927;-70
2022/11/11 15:39:38;;;;;;;;;;;22.20;50.30;;;;;;5083545;28;19920;-67
2022/11/11 15:42:04;;;;;;;;;;;22.20;50.40;;;;;;5069947;28;20356;-68
2022/11/11 15:44:31;;;;;;;;;;;22.10;50.20;;;;;;5086252;28;19920;-70
2022/11/11 15:46:57;;;;;;;;;;;22.00;50.20;;;;;;5085672;28;19926;-70
2022/11/11 15:49:42;;;;;;;;;;;21.90;50.50;;;;;;5084258;28;20350;-70
2022/11/11 15:52:23;;;;;;;;;;;21.80;50.60;;;;;;5085802;28;19926;-70
2022/11/11 15:54:49;;;;;;;;;;;21.70;50.80;;;;;;5085151;28;19927;-70
2022/11/11 15:57:20;;;;;;;;;;;21.60;51.10;;;;;;5081392;28;19924;-70
2022/11/11 15:59:46;;;;;;;;;;;21.50;51.30;;;;;;5087474;28;19925;-69
2022/11/11 16:02:20;;;;;;;;;;;21.50;51.60;;;;;;5085270;28;19931;-70
2022/11/11 16:04:47;;;;;;;;;;;21.40;51.70;;;;;;5086088;28;20512;-70
2022/11/11 16:07:16;;;;;;;;;;;21.40;51.90;;;;;;5085201;28;19920;-69
2022/11/11 16:09:41;;;;;;;;;;;21.30;52.00;;;;;;5085197;28;19925;-70
2022/11/11 16:12:09;;;;;;;;;;;21.30;52.10;;;;;;5085976;28;20050;-70
2022/11/11 16:14:39;;;;;;;;;;;21.20;52.10;;;;;;5086571;28;19931;-70
2022/11/11 16:17:05;;;;;;;;;;;21.30;52.30;;;;;;5085592;28;19931;-70
2022/11/11 16:19:36;;;;;;;;;;;21.20;52.30;;;;;;5085257;28;20007;-69
2022/11/11 16:22:05;;;;;;;;;;;21.20;52.40;;;;;;5087278;28;19927;-70
2022/11/11 16:24:33;;;;;;;;;;;21.20;52.40;;;;;;5086690;28;19921;-70
2022/11/11 16:27:02;;;;;;;;;;;21.20;52.40;;;;;;5086984;28;19982;-70
2022/11/11 16:29:31;;;;;;;;;;;21.20;52.50;;;;;;5086898;28;20327;-70
2022/11/11 16:31:57;;;;;;;;;;;21.10;52.50;;;;;;5086352;28;19924;-70
2022/11/11 16:37:11;;;;;;;;;;;21.10;52.60;;;;;;5130201;27;1856656;-69
2022/11/11 16:39:36;;;;;;;;;;;21.00;52.60;;;;;;5172540;27;19941;-69
2022/11/11 16:42:04;;;;;;;;;;;21.10;53.50;;;;;;5166519;27;20421;-69
2022/11/11 16:47:29;;;;;;;;;;;21.00;52.80;;;;;;5088871;28;19913;-69
2022/11/11 16:50:15;;;;;;;;;;;20.90;52.90;;;;;;5088231;28;19952;-69
2022/11/11 16:52:56;;;;;;;;;;;20.90;53.00;;;;;;5087880;28;19920;-69
2022/11/11 16:55:31;;;;;;;;;;;20.90;53.10;;;;;;5088432;28;19931;-69
2022/11/11 16:57:59;;;;;;;;;;;20.80;53.80;;;;;;5087295;28;19920;-69
2022/11/11 17:00:25;;;;;;;;;;;20.80;53.20;;;;;;5087115;28;19928;-69
2022/11/11 17:03:10;;;;;;;;;;;20.80;53.20;;;;;;5089341;28;19924;-69
2022/11/11 17:05:46;;;;;;;;;;;20.80;53.30;;;;;;5104578;28;20303;-69
2022/11/11 17:08:27;;;;;;;;;;;20.80;53.40;;;;;;5087987;28;19924;-69
2022/11/11 17:10:53;;;;;;;;;;;20.70;53.40;;;;;;5088308;28;20249;-69
2022/11/11 17:13:18;;;;;;;;;;;20.70;53.40;;;;;;5089046;28;19999;-69
2022/11/11 17:15:44;;;;;;;;;;;20.70;53.50;;;;;;5087685;28;19920;-69
2022/11/11 17:18:11;;;;;;;;;;;20.60;53.50;;;;;;5087114;28;19920;-70
2022/11/11 17:20:37;;;;;;;;;;;20.60;53.60;;;;;;5086799;28;19920;-69
2022/11/11 17:23:05;;;;;;;;;;;20.60;53.60;;;;;;5088889;28;19920;-72